createdAt,value
2022-10-04T00:01:09.260Z,11.06
2022-10-04T00:03:42.895Z,10.97
2022-10-04T00:06:17.469Z,11.01
2022-10-04T00:08:51.716Z,10.86
2022-10-04T00:11:26.743Z,10.86
2022-10-04T00:13:58.596Z,10.80
2022-10-04T00:16:31.324Z,10.82
2022-10-04T00:19:23.394Z,10.79
2022-10-04T00:22:12.683Z,10.74
2022-10-04T00:25:21.207Z,10.75
2022-10-04T00:28:25.313Z,10.73
2022-10-04T00:31:16.447Z,10.50
2022-10-04T00:33:45.759Z,10.55
2022-10-04T00:36:45.642Z,10.59
2022-10-04T00:39:33.948Z,10.56
2022-10-04T00:42:13.605Z,10.66
2022-10-04T00:44:50.467Z,10.74
2022-10-04T00:47:31.885Z,10.73
2022-10-04T00:50:06.951Z,10.87
2022-10-04T00:52:38.225Z,10.62
2022-10-04T00:55:10.597Z,10.45
2022-10-04T00:57:43.659Z,10.28
2022-10-04T01:00:16.304Z,10.46
2022-10-04T01:02:54.253Z,10.38
2022-10-04T01:05:26.614Z,10.50
2022-10-04T01:07:58.356Z,10.47
2022-10-04T01:10:29.887Z,10.48
2022-10-04T01:13:05.828Z,10.47
2022-10-04T01:15:42.901Z,10.39
2022-10-04T01:18:15.711Z,10.34
2022-10-04T01:20:53.967Z,10.44
2022-10-04T01:23:51.450Z,10.49
2022-10-04T01:26:40.918Z,10.53
2022-10-04T01:29:12.561Z,10.51
2022-10-04T01:31:43.332Z,10.57
2022-10-04T01:34:14.626Z,10.44
2022-10-04T01:36:42.907Z,10.35
2022-10-04T01:39:12.631Z,10.48
2022-10-04T01:41:52.377Z,10.34
2022-10-04T01:44:29.256Z,10.21
2022-10-04T01:47:00.645Z,10.26
2022-10-04T01:49:32.677Z,10.41
2022-10-04T01:52:04.459Z,10.35
2022-10-04T01:54:37.223Z,10.30
2022-10-04T01:57:12.439Z,10.15
2022-10-04T01:59:46.110Z,10.23
2022-10-04T02:02:25.538Z,10.24
2022-10-04T02:04:56.913Z,10.21
2022-10-04T02:07:28.371Z,10.30
2022-10-04T02:10:00.797Z,10.22
2022-10-04T02:12:31.485Z,10.29
2022-10-04T02:15:02.424Z,10.32
2022-10-04T02:17:32.965Z,10.43
2022-10-04T02:20:03.123Z,10.37
2022-10-04T02:22:31.786Z,10.31
2022-10-04T02:25:02.013Z,10.41
2022-10-04T02:27:31.448Z,10.33
2022-10-04T02:30:03.889Z,10.38
2022-10-04T02:32:51.293Z,10.33
2022-10-04T02:35:20.902Z,9.81
2022-10-04T02:37:52.666Z,10.19
2022-10-04T02:40:29.057Z,10.11
2022-10-04T02:43:01.542Z,10.14
2022-10-04T02:45:38.521Z,10.16
2022-10-04T02:48:19.554Z,10.05
2022-10-04T02:50:50.290Z,10.10
2022-10-04T02:53:22.954Z,10.16
2022-10-04T02:55:52.583Z,10.10
2022-10-04T02:58:24.628Z,10.02
2022-10-04T03:00:57.649Z,10.01
2022-10-04T03:03:28.800Z,10.04
2022-10-04T03:06:02.607Z,10.09
2022-10-04T03:08:33.170Z,10.04
2022-10-04T03:11:05.535Z,10.07
2022-10-04T03:13:34.609Z,9.96
2022-10-04T03:16:02.832Z,10.01
2022-10-04T03:18:32.243Z,10.07
2022-10-04T03:21:03.608Z,10.06
2022-10-04T03:23:33.484Z,10.08
2022-10-04T03:26:07.971Z,10.07
2022-10-04T03:28:38.658Z,10.19
2022-10-04T03:31:07.328Z,10.28
2022-10-04T03:33:35.550Z,10.26
2022-10-04T03:36:04.283Z,10.29
2022-10-04T03:38:35.800Z,10.34
2022-10-04T03:41:05.589Z,10.35
2022-10-04T03:43:38.452Z,10.25
2022-10-04T03:46:09.499Z,10.19
2022-10-04T03:48:40.842Z,10.17
2022-10-04T03:51:14.645Z,10.26
2022-10-04T03:53:46.490Z,10.31
2022-10-04T03:56:20.142Z,10.38
2022-10-04T03:58:50.634Z,10.35
2022-10-04T04:01:27.915Z,10.39
2022-10-04T04:04:02.325Z,10.33
2022-10-04T04:06:40.902Z,10.07
2022-10-04T04:09:10.244Z,10.05
2022-10-04T04:11:39.726Z,9.97
2022-10-04T04:14:13.866Z,9.93
2022-10-04T04:16:42.171Z,10.01
2022-10-04T04:19:14.517Z,10.02
2022-10-04T04:21:43.132Z,9.89
2022-10-04T04:24:23.164Z,9.93
2022-10-04T04:26:57.670Z,9.94
2022-10-04T04:29:32.913Z,9.95
2022-10-04T04:32:05.033Z,9.90
2022-10-04T04:34:35.618Z,9.97
2022-10-04T04:37:05.817Z,9.89
2022-10-04T04:39:41.141Z,9.89
2022-10-04T04:42:18.218Z,9.86
2022-10-04T04:44:51.698Z,9.76
2022-10-04T04:47:32.434Z,9.84
2022-10-04T04:50:06.330Z,9.99
2022-10-04T04:52:36.106Z,9.98
2022-10-04T04:55:05.468Z,9.91
2022-10-04T04:57:35.163Z,9.95
2022-10-04T05:00:03.818Z,10.00
2022-10-04T05:02:35.255Z,10.18
2022-10-04T05:05:22.138Z,10.14
2022-10-04T05:07:50.293Z,10.27
2022-10-04T05:10:32.313Z,10.52
2022-10-04T05:13:04.353Z,10.72
2022-10-04T05:15:35.826Z,10.90
2022-10-04T05:18:17.813Z,11.07
2022-10-04T05:20:50.757Z,11.25
2022-10-04T05:23:18.797Z,11.38
2022-10-04T05:25:47.107Z,11.49
2022-10-04T05:28:18.342Z,11.60
2022-10-04T05:31:01.638Z,11.70
2022-10-04T05:33:39.722Z,11.74
2022-10-04T05:36:42.825Z,12.04
2022-10-04T05:39:20.535Z,12.24
2022-10-04T05:41:55.166Z,12.46
2022-10-04T05:44:28.486Z,12.77
2022-10-04T05:46:58.692Z,12.96
2022-10-04T05:49:29.533Z,13.19
2022-10-04T05:52:01.094Z,13.33
2022-10-04T05:54:32.955Z,13.35
2022-10-04T05:57:19.295Z,13.38
2022-10-04T06:00:07.896Z,13.35
2022-10-04T06:02:54.560Z,13.32
2022-10-04T06:05:29.302Z,13.23
2022-10-04T06:08:02.990Z,13.23
2022-10-04T06:10:53.738Z,13.21
2022-10-04T06:13:39.860Z,13.10
2022-10-04T06:16:21.285Z,13.09
2022-10-04T06:19:09.637Z,13.14
2022-10-04T06:21:56.945Z,13.16
2022-10-04T06:24:28.614Z,13.12
2022-10-04T06:27:02.541Z,12.88
2022-10-04T06:29:34.977Z,13.11
2022-10-04T06:32:34.358Z,13.17
2022-10-04T06:35:34.038Z,13.46
2022-10-04T06:38:32.129Z,13.69
2022-10-04T06:41:24.638Z,13.78
2022-10-04T06:44:12.581Z,13.78
2022-10-04T06:46:48.089Z,13.96
2022-10-04T06:49:40.295Z,14.20
2022-10-04T06:52:35.325Z,14.41
2022-10-04T06:55:33.290Z,14.57
2022-10-04T06:58:25.486Z,14.73
2022-10-04T07:00:58.220Z,14.82
2022-10-04T07:03:32.170Z,15.09
2022-10-04T07:06:05.879Z,15.23
2022-10-04T07:08:39.921Z,15.37
2022-10-04T07:11:15.499Z,15.44
2022-10-04T07:13:52.405Z,15.57
2022-10-04T07:16:41.369Z,15.72
2022-10-04T07:19:24.998Z,15.71
2022-10-04T07:22:02.298Z,15.76
2022-10-04T07:24:43.152Z,15.66
2022-10-04T07:27:17.819Z,15.56
2022-10-04T07:29:46.842Z,15.49
2022-10-04T07:32:19.272Z,15.48
2022-10-04T07:34:53.849Z,15.33
2022-10-04T07:37:24.173Z,15.29
2022-10-04T07:39:58.343Z,15.35
2022-10-04T07:42:31.020Z,15.41
2022-10-04T07:45:12.018Z,15.56
2022-10-04T07:47:40.174Z,15.69
2022-10-04T07:50:29.450Z,16.06
2022-10-04T07:53:09.842Z,16.16
2022-10-04T07:55:46.921Z,16.33
2022-10-04T07:58:28.433Z,16.44
2022-10-04T08:01:00.029Z,16.53
2022-10-04T08:03:56.594Z,16.83
2022-10-04T08:06:34.880Z,17.04
2022-10-04T08:09:29.711Z,17.22
2022-10-04T08:12:06.573Z,17.53
2022-10-04T08:14:50.643Z,17.74
2022-10-04T08:17:29.107Z,17.92
2022-10-04T08:20:04.950Z,18.07
2022-10-04T08:22:51.326Z,17.97
2022-10-04T08:25:26.194Z,18.06
2022-10-04T08:28:22.146Z,18.13
2022-10-04T08:31:10.298Z,18.27
2022-10-04T08:33:58.430Z,18.38
2022-10-04T08:36:40.928Z,18.50
2022-10-04T08:39:23.426Z,18.20
2022-10-04T08:42:30.525Z,18.00
2022-10-04T08:45:48.165Z,18.22
2022-10-04T08:49:01.216Z,18.49
2022-10-04T08:52:05.377Z,18.05
2022-10-04T08:55:13.164Z,18.37
2022-10-04T08:58:06.035Z,18.46
2022-10-04T09:00:51.725Z,18.59
2022-10-04T09:03:47.587Z,18.70
2022-10-04T09:06:31.170Z,18.86
2022-10-04T09:09:46.951Z,18.72
2022-10-04T09:12:35.360Z,18.90
2022-10-04T09:15:31.479Z,19.08
2022-10-04T09:18:09.801Z,19.30
2022-10-04T09:20:51.933Z,19.37
2022-10-04T09:23:45.395Z,19.20
2022-10-04T09:26:23.244Z,19.47
2022-10-04T09:29:39.150Z,19.60
2022-10-04T09:32:55.826Z,19.57
2022-10-04T09:35:56.978Z,18.33
2022-10-04T09:39:28.878Z,18.93
2022-10-04T09:42:28.975Z,18.95
2022-10-04T09:45:27.565Z,18.36
2022-10-04T09:48:09.226Z,18.74
2022-10-04T09:51:01.042Z,18.95
2022-10-04T09:53:57.325Z,19.13
2022-10-04T09:56:50.756Z,19.15
2022-10-04T09:59:42.037Z,19.27
2022-10-04T10:02:47.958Z,19.51
2022-10-04T10:05:32.583Z,19.18
2022-10-04T10:08:12.259Z,19.36
2022-10-04T10:11:09.440Z,19.04
2022-10-04T10:14:04.945Z,18.92
2022-10-04T10:16:50.050Z,18.44
2022-10-04T10:19:47.733Z,18.34
2022-10-04T10:22:46.124Z,18.23
2022-10-04T10:25:28.822Z,18.14
2022-10-04T10:28:24.210Z,18.09
2022-10-04T10:31:09.371Z,18.05
2022-10-04T10:34:11.025Z,18.10
2022-10-04T10:36:53.771Z,18.22
2022-10-04T10:39:49.838Z,18.12
2022-10-04T10:42:57.901Z,18.40
2022-10-04T10:45:45.878Z,18.35
2022-10-04T10:48:19.003Z,18.36
2022-10-04T10:51:03.862Z,18.24
2022-10-04T10:54:17.122Z,18.18
2022-10-04T10:56:56.842Z,18.17
2022-10-04T11:00:11.876Z,18.33
2022-10-04T11:03:11.789Z,18.44
2022-10-04T11:06:25.231Z,18.52
2022-10-04T11:09:38.750Z,18.67
2022-10-04T11:12:42.141Z,18.86
2022-10-04T11:15:40.811Z,18.88
2022-10-04T11:18:48.675Z,19.02
2022-10-04T11:21:43.627Z,18.99
2022-10-04T11:24:45.082Z,18.83
2022-10-04T11:27:30.517Z,18.95
2022-10-04T11:30:23.563Z,18.99
2022-10-04T11:33:34.850Z,18.97
2022-10-04T11:36:29.397Z,18.77
2022-10-04T11:39:26.896Z,18.72
2022-10-04T11:41:57.408Z,18.62
2022-10-04T11:44:47.578Z,18.71
2022-10-04T11:47:29.963Z,18.83
2022-10-04T11:50:20.538Z,18.99
2022-10-04T11:53:26.336Z,18.91
2022-10-04T11:56:10.234Z,18.87
2022-10-04T11:58:54.394Z,18.78
2022-10-04T12:02:00.105Z,18.56
2022-10-04T12:05:01.350Z,18.79
2022-10-04T12:07:40.508Z,18.76
2022-10-04T12:10:23.105Z,18.78
2022-10-04T12:13:17.397Z,18.69
2022-10-04T12:16:03.268Z,18.78
2022-10-04T12:19:13.606Z,18.62
2022-10-04T12:21:52.566Z,18.59
2022-10-04T12:25:03.208Z,18.59
2022-10-04T12:28:16.071Z,18.75
2022-10-04T12:31:08.712Z,18.83
2022-10-04T12:33:44.733Z,18.88
2022-10-04T12:36:28.317Z,18.86
2022-10-04T12:39:12.492Z,18.86
2022-10-04T12:41:52.116Z,18.75
2022-10-04T12:44:36.074Z,18.57
2022-10-04T12:47:40.417Z,18.56
2022-10-04T12:50:18.813Z,18.36
2022-10-04T12:52:55.495Z,18.26
2022-10-04T12:55:42.755Z,18.16
2022-10-04T12:58:22.873Z,17.99
2022-10-04T13:00:57.791Z,17.97
2022-10-04T13:03:40.295Z,17.94
2022-10-04T13:06:21.751Z,18.01
2022-10-04T13:09:08.625Z,17.91
2022-10-04T13:11:56.324Z,17.99
2022-10-04T13:14:46.366Z,18.02
2022-10-04T13:17:34.735Z,17.79
2022-10-04T13:20:35.853Z,17.82
2022-10-04T13:23:08.932Z,17.46
2022-10-04T13:25:46.466Z,17.55
2022-10-04T13:28:24.984Z,17.43
2022-10-04T13:31:01.654Z,17.55
2022-10-04T13:33:43.556Z,17.50
2022-10-04T13:36:17.790Z,17.57
2022-10-04T13:39:07.495Z,17.47
2022-10-04T13:41:49.654Z,17.28
2022-10-04T13:44:27.832Z,17.16
2022-10-04T13:47:17.581Z,16.98
2022-10-04T13:50:04.177Z,16.91
2022-10-04T13:53:01.016Z,16.81
2022-10-04T13:55:54.386Z,16.76
2022-10-04T13:58:36.652Z,16.74
2022-10-04T14:01:34.219Z,16.74
2022-10-04T14:04:14.921Z,16.66
2022-10-04T14:07:31.916Z,16.71
2022-10-04T14:10:22.370Z,16.59
2022-10-04T14:13:34.163Z,16.75
2022-10-04T14:16:19.237Z,16.72
2022-10-04T14:19:21.514Z,16.65
2022-10-04T14:22:23.149Z,16.41
2022-10-04T14:25:21.573Z,16.43
2022-10-04T14:28:16.865Z,16.53
2022-10-04T14:31:04.445Z,16.40
2022-10-04T14:33:57.898Z,16.46
2022-10-04T14:36:54.274Z,16.46
2022-10-04T14:39:51.462Z,16.52
2022-10-04T14:42:45.722Z,16.46
2022-10-04T14:45:32.971Z,16.54
2022-10-04T14:48:29.614Z,16.64
2022-10-04T14:51:15.970Z,16.73
2022-10-04T14:53:56.030Z,16.71
2022-10-04T14:56:46.919Z,16.77
2022-10-04T14:59:36.655Z,16.81
2022-10-04T15:02:36.417Z,16.77
2022-10-04T15:05:28.712Z,16.71
2022-10-04T15:08:13.526Z,16.83
2022-10-04T15:10:51.105Z,16.79
2022-10-04T15:13:27.164Z,16.79
2022-10-04T15:16:14.264Z,16.86
2022-10-04T15:18:53.809Z,16.73
2022-10-04T15:21:36.483Z,16.72
2022-10-04T15:24:28.650Z,16.68
2022-10-04T15:27:29.300Z,16.69
2022-10-04T15:30:10.907Z,16.68
2022-10-04T15:32:46.677Z,16.62
2022-10-04T15:35:25.542Z,16.60
2022-10-04T15:38:00.738Z,16.58
2022-10-04T15:40:55.598Z,16.51
2022-10-04T15:43:30.954Z,16.47
2022-10-04T15:46:40.545Z,16.41
2022-10-04T15:49:37.922Z,16.30
2022-10-04T15:52:16.195Z,16.25
2022-10-04T15:55:04.264Z,16.15
2022-10-04T15:57:51.479Z,16.08
2022-10-04T16:00:23.262Z,15.98
2022-10-04T16:03:14.060Z,15.84
2022-10-04T16:05:47.950Z,15.79
2022-10-04T16:08:30.625Z,15.70
2022-10-04T16:11:10.915Z,15.56
2022-10-04T16:14:03.934Z,15.50
2022-10-04T16:16:58.352Z,15.44
2022-10-04T16:19:48.351Z,15.35
2022-10-04T16:22:20.145Z,15.26
2022-10-04T16:24:51.462Z,15.29
2022-10-04T16:27:51.719Z,15.24
2022-10-04T16:30:29.015Z,15.21
2022-10-04T16:33:13.657Z,15.20
2022-10-04T16:35:46.662Z,15.16
2022-10-04T16:38:26.352Z,15.13
2022-10-04T16:41:11.428Z,15.13
2022-10-04T16:43:52.830Z,15.08
2022-10-04T16:46:30.804Z,15.07
2022-10-04T16:49:02.258Z,15.04
2022-10-04T16:52:05.439Z,15.01
2022-10-04T16:54:48.639Z,14.93
2022-10-04T16:57:23.013Z,14.94
2022-10-04T16:59:54.443Z,14.95
2022-10-04T17:02:38.005Z,14.91
2022-10-04T17:05:22.857Z,14.80
2022-10-04T17:08:17.642Z,14.76
2022-10-04T17:11:10.045Z,14.76
2022-10-04T17:13:56.370Z,14.76
2022-10-04T17:16:31.986Z,14.72
2022-10-04T17:19:26.037Z,14.63
2022-10-04T17:22:06.907Z,14.58
2022-10-04T17:24:43.373Z,14.43
2022-10-04T17:27:27.758Z,14.44
2022-10-04T17:30:16.847Z,14.48
2022-10-04T17:32:55.298Z,14.42
2022-10-04T17:36:14.418Z,14.19
2022-10-04T17:38:49.255Z,14.10
2022-10-04T17:41:22.334Z,14.03
2022-10-04T17:44:23.718Z,14.09
2022-10-04T17:47:01.810Z,14.09
2022-10-04T17:49:57.212Z,14.07
2022-10-04T17:52:50.481Z,13.88
2022-10-04T17:55:28.789Z,13.76
2022-10-04T17:58:04.220Z,13.60
2022-10-04T18:03:39.947Z,13.62
2022-10-04T18:06:18.801Z,13.63
2022-10-04T18:08:53.424Z,13.66
2022-10-04T18:11:29.733Z,13.67
2022-10-04T18:14:02.549Z,13.70
2022-10-04T18:16:32.912Z,13.70
2022-10-04T18:19:37.209Z,13.59
2022-10-04T18:22:15.153Z,13.55
2022-10-04T18:24:44.865Z,13.57
2022-10-04T18:27:19.718Z,13.49
2022-10-04T18:30:00.555Z,13.51
2022-10-04T18:32:36.279Z,13.51
2022-10-04T18:35:22.665Z,13.51
2022-10-04T18:37:51.053Z,13.48
2022-10-04T18:40:21.499Z,13.30
2022-10-04T18:42:57.170Z,13.25
2022-10-04T18:45:28.447Z,13.32
2022-10-04T18:47:57.928Z,13.30
2022-10-04T18:50:35.322Z,13.30
2022-10-04T18:53:28.105Z,13.30
2022-10-04T18:56:01.099Z,13.30
2022-10-04T18:59:15.255Z,13.29
2022-10-04T19:02:06.704Z,13.28
2022-10-04T19:05:02.141Z,13.24
2022-10-04T19:07:41.264Z,13.09
2022-10-04T19:10:23.835Z,13.11
2022-10-04T19:13:10.931Z,13.10
2022-10-04T19:15:59.767Z,13.12
2022-10-04T19:18:41.767Z,13.13
2022-10-04T19:21:20.612Z,13.12
2022-10-04T19:24:03.315Z,13.10
2022-10-04T19:26:36.014Z,13.02
2022-10-04T19:29:14.128Z,12.84
2022-10-04T19:31:50.420Z,12.76
2022-10-04T19:34:23.935Z,12.71
2022-10-04T19:37:00.482Z,12.73
2022-10-04T19:39:47.453Z,12.62
2022-10-04T19:42:19.267Z,12.60
2022-10-04T19:44:59.960Z,12.53
2022-10-04T19:47:40.152Z,12.43
2022-10-04T19:50:17.873Z,12.55
2022-10-04T19:52:53.409Z,12.58
2022-10-04T19:55:27.617Z,12.54
2022-10-04T19:58:03.919Z,12.55
2022-10-04T20:00:33.178Z,12.54
2022-10-04T20:03:01.106Z,12.57
2022-10-04T20:05:29.122Z,12.59
2022-10-04T20:08:01.611Z,12.55
2022-10-04T20:10:34.677Z,12.62
2022-10-04T20:13:21.383Z,12.68
2022-10-04T20:15:51.445Z,12.65
2022-10-04T20:18:59.971Z,12.68
2022-10-04T20:21:33.321Z,12.68
2022-10-04T20:24:01.757Z,12.69
2022-10-04T20:26:55.994Z,12.72
2022-10-04T20:30:06.599Z,12.66
2022-10-04T20:32:57.395Z,12.65
2022-10-04T20:36:01.599Z,12.64
2022-10-04T20:38:59.520Z,12.69
2022-10-04T20:42:20.466Z,12.72
2022-10-04T20:44:59.958Z,12.68
2022-10-04T20:47:47.853Z,12.66
2022-10-04T20:50:26.741Z,12.71
2022-10-04T20:52:57.231Z,12.77
2022-10-04T20:55:28.413Z,12.76
2022-10-04T20:58:01.193Z,12.60
2022-10-04T21:00:33.909Z,12.48
2022-10-04T21:03:10.128Z,12.48
2022-10-04T21:05:38.872Z,12.59
2022-10-04T21:08:21.427Z,12.66
2022-10-04T21:11:20.044Z,12.70
2022-10-04T21:14:00.807Z,12.73
2022-10-04T21:16:41.032Z,12.69
2022-10-04T21:19:31.655Z,12.79
2022-10-04T21:22:00.564Z,12.76
2022-10-04T21:24:34.937Z,12.78
2022-10-04T21:27:03.658Z,12.68
2022-10-04T21:29:33.294Z,12.54
2022-10-04T21:32:01.366Z,12.62
2022-10-04T21:34:51.890Z,12.69
2022-10-04T21:37:17.885Z,12.70
2022-10-04T21:39:46.002Z,12.65
2022-10-04T21:42:13.966Z,12.61
2022-10-04T21:44:43.322Z,12.51
2022-10-04T21:47:11.277Z,12.53
2022-10-04T21:49:39.180Z,12.49
2022-10-04T21:52:07.686Z,12.39
2022-10-04T21:54:35.885Z,12.34
2022-10-04T21:57:03.833Z,12.28
2022-10-04T21:59:31.769Z,12.15
2022-10-04T22:02:01.146Z,11.97
2022-10-04T22:04:29.150Z,11.98
2022-10-04T22:06:57.065Z,11.95
2022-10-04T22:09:24.986Z,12.04
2022-10-04T22:11:52.900Z,11.98
2022-10-04T22:14:20.815Z,11.99
2022-10-04T22:16:49.136Z,11.99
2022-10-04T22:19:19.001Z,12.04
2022-10-04T22:21:46.925Z,11.78
2022-10-04T22:24:18.731Z,11.78
2022-10-04T22:26:47.341Z,11.83
2022-10-04T22:29:16.803Z,11.89
2022-10-04T22:31:47.837Z,11.70
2022-10-04T22:34:19.360Z,11.71
2022-10-04T22:36:49.163Z,11.62
2022-10-04T22:39:19.738Z,11.51
2022-10-04T22:41:49.453Z,11.32
2022-10-04T22:44:19.775Z,11.15
2022-10-04T22:46:52.621Z,11.01
2022-10-04T22:49:25.142Z,10.99
2022-10-04T22:51:54.949Z,11.24
2022-10-04T22:54:25.429Z,11.40
2022-10-04T22:56:54.357Z,11.46
2022-10-04T22:59:28.212Z,11.47
2022-10-04T23:01:56.247Z,11.35
2022-10-04T23:04:26.870Z,11.30
2022-10-04T23:06:54.983Z,11.40
2022-10-04T23:09:22.898Z,11.44
2022-10-04T23:11:50.843Z,11.32
2022-10-04T23:14:18.761Z,11.42
2022-10-04T23:16:47.480Z,11.44
2022-10-04T23:19:18.871Z,11.35
2022-10-04T23:21:49.883Z,11.38
2022-10-04T23:24:19.788Z,11.43
2022-10-04T23:26:50.050Z,11.41
2022-10-04T23:29:20.060Z,11.34
2022-10-04T23:31:49.824Z,11.27
2022-10-04T23:34:21.004Z,11.35
2022-10-04T23:36:50.386Z,11.30
2022-10-04T23:39:24.759Z,11.37
2022-10-04T23:41:54.061Z,11.45
2022-10-04T23:44:23.851Z,11.42
2022-10-04T23:46:52.497Z,11.31
2022-10-04T23:49:21.461Z,11.40
2022-10-04T23:51:56.568Z,11.37
2022-10-04T23:54:24.643Z,11.37
2022-10-04T23:56:52.763Z,11.35
2022-10-04T23:59:23.406Z,11.31
